Time;durP1;ratioP1;P1;durP2;ratioP2;P2;SDS_P1;SDS_P2;PMS_P1;PMS_P2;Temp;Humidity;BMP_temperature;BMP_pressure;BME280_temperature;BME280_humidity;BME280_pressure;Samples;Min_cycle;Max_cycle;Signal;HPM_P1;HPM_P2
2023/05/29 00:01:45;;;;;;;5.97;0.82;;;11.30;99.90;;;;;;4910115;29;20044;-36
2023/05/29 00:04:12;;;;;;;7.95;1.88;;;11.30;99.90;;;;;;4906584;29;20414;-35
2023/05/29 00:06:37;;;;;;;9.07;1.20;;;11.30;99.90;;;;;;4904291;29;20055;-35
2023/05/29 00:09:04;;;;;;;8.18;1.15;;;11.20;99.90;;;;;;4909224;29;20051;-36
2023/05/29 00:11:29;;;;;;;9.15;2.28;;;11.20;99.90;;;;;;4907602;29;20498;-35
2023/05/29 00:13:56;;;;;;;8.63;1.30;;;11.10;99.90;;;;;;4906044;29;20054;-35
2023/05/29 00:16:23;;;;;;;9.38;1.02;;;11.10;99.90;;;;;;4906641;29;20143;-36
2023/05/29 00:18:49;;;;;;;8.75;1.30;;;11.00;99.90;;;;;;4901416;29;20323;-35
2023/05/29 00:21:15;;;;;;;5.82;1.48;;;11.00;99.90;;;;;;4898913;29;20052;-36
2023/05/29 00:23:41;;;;;;;8.02;0.90;;;11.00;99.90;;;;;;4900070;29;20131;-37
2023/05/29 00:26:07;;;;;;;9.77;1.30;;;11.00;99.90;;;;;;4903924;29;20059;-37
2023/05/29 00:28:34;;;;;;;8.43;1.30;;;10.90;99.90;;;;;;4906006;29;20055;-37
2023/05/29 00:31:00;;;;;;;9.18;1.58;;;10.90;99.90;;;;;;4908323;29;20498;-37
2023/05/29 00:33:26;;;;;;;8.65;1.20;;;10.90;99.90;;;;;;4906910;29;20080;-37
2023/05/29 00:35:52;;;;;;;6.97;1.55;;;10.80;99.90;;;;;;4911518;29;20131;-37
2023/05/29 00:38:17;;;;;;;7.32;1.45;;;10.80;99.90;;;;;;4902618;29;20466;-36
2023/05/29 00:40:43;;;;;;;8.50;1.05;;;10.80;99.90;;;;;;4907494;29;20044;-37
2023/05/29 00:43:08;;;;;;;8.07;2.15;;;10.80;99.90;;;;;;4908947;29;20621;-37
2023/05/29 00:45:36;;;;;;;10.32;2.13;;;10.70;99.90;;;;;;4908570;29;20083;-37
2023/05/29 00:48:03;;;;;;;8.70;1.13;;;10.70;99.90;;;;;;4909963;29;20490;-37
2023/05/29 00:50:29;;;;;;;6.70;1.10;;;10.70;99.90;;;;;;4911397;29;20048;-37
2023/05/29 00:52:55;;;;;;;6.45;1.10;;;10.70;99.90;;;;;;4904128;29;20059;-37
2023/05/29 00:55:21;;;;;;;12.82;1.95;;;10.70;99.90;;;;;;4906535;29;20048;-37
2023/05/29 00:57:49;;;;;;;10.80;1.55;;;10.70;99.90;;;;;;4909146;29;20078;-37
2023/05/29 01:00:16;;;;;;;5.85;1.67;;;10.70;99.90;;;;;;4910710;29;20533;-37
2023/05/29 01:02:44;;;;;;;11.00;1.15;;;10.60;99.90;;;;;;4907648;29;20064;-37
2023/05/29 01:05:11;;;;;;;14.05;1.38;;;10.60;99.90;;;;;;4903425;29;20056;-37
2023/05/29 01:07:37;;;;;;;5.22;0.90;;;10.50;99.90;;;;;;4907429;29;20075;-37
2023/05/29 01:10:04;;;;;;;9.48;1.38;;;10.50;99.90;;;;;;4908882;29;20110;-37
2023/05/29 01:13:05;;;;;;;7.63;1.30;;;10.50;99.90;;;;;;4908538;29;20088;-37
2023/05/29 01:16:14;;;;;;;6.70;1.23;;;10.50;99.90;;;;;;4900208;29;20458;-37
2023/05/29 01:18:59;;;;;;;8.43;0.90;;;10.40;99.90;;;;;;4902220;29;20191;-37
2023/05/29 01:21:43;;;;;;;6.18;1.48;;;10.40;99.90;;;;;;4906783;29;20143;-36
2023/05/29 01:24:21;;;;;;;7.82;1.08;;;10.40;99.90;;;;;;4901175;29;20115;-37
2023/05/29 01:26:51;;;;;;;9.18;1.27;;;10.30;99.90;;;;;;4905093;29;20056;-37
2023/05/29 01:29:27;;;;;;;6.35;0.65;;;10.30;99.90;;;;;;4905769;29;20075;-37
2023/05/29 01:31:54;;;;;;;6.95;0.95;;;10.30;99.90;;;;;;4904389;29;20060;-37
2023/05/29 01:34:20;;;;;;;11.30;1.02;;;10.30;99.90;;;;;;4904670;29;20060;-37
2023/05/29 01:36:48;;;;;;;4.43;0.70;;;10.30;99.90;;;;;;4903558;29;20107;-37
2023/05/29 01:39:15;;;;;;;11.50;2.58;;;10.20;99.90;;;;;;4908749;29;20063;-37
2023/05/29 01:41:44;;;;;;;7.10;0.75;;;10.20;99.90;;;;;;4906687;29;20055;-37
2023/05/29 01:44:11;;;;;;;6.22;1.15;;;10.20;99.90;;;;;;4901744;29;20052;-37
2023/05/29 01:46:43;;;;;;;9.23;1.60;;;10.10;99.90;;;;;;4907821;29;20489;-37
2023/05/29 01:49:11;;;;;;;11.63;1.92;;;10.10;99.90;;;;;;4905529;29;20731;-37
2023/05/29 01:51:37;;;;;;;5.80;0.90;;;10.10;99.90;;;;;;4908277;29;20129;-37
2023/05/29 01:54:03;;;;;;;8.07;1.23;;;10.10;99.90;;;;;;4901159;29;20056;-37
2023/05/29 01:56:30;;;;;;;9.73;1.33;;;10.00;99.90;;;;;;4904238;29;20055;-37
2023/05/29 01:58:58;;;;;;;9.18;1.30;;;10.10;99.90;;;;;;4906693;29;20063;-37
2023/05/29 02:01:24;;;;;;;7.20;0.77;;;10.00;99.90;;;;;;4909536;29;20048;-37
2023/05/29 02:03:51;;;;;;;10.10;0.90;;;10.00;99.90;;;;;;4909131;29;20063;-36
2023/05/29 02:06:16;;;;;;;10.93;1.58;;;9.90;99.90;;;;;;4902795;29;20485;-36
2023/05/29 02:08:42;;;;;;;9.27;0.85;;;9.90;99.90;;;;;;4909718;29;20048;-36
2023/05/29 02:11:08;;;;;;;6.97;1.30;;;9.90;99.90;;;;;;4911475;29;20061;-37
2023/05/29 02:13:34;;;;;;;8.68;1.75;;;9.90;99.90;;;;;;4908843;29;20052;-36
2023/05/29 02:15:59;;;;;;;7.65;1.05;;;9.90;99.90;;;;;;4909103;29;20367;-36
2023/05/29 02:18:25;;;;;;;3.97;0.80;;;9.90;99.90;;;;;;4910683;29;20063;-37
2023/05/29 02:20:51;;;;;;;4.88;1.02;;;9.90;99.90;;;;;;4906827;29;20084;-36
2023/05/29 02:23:17;;;;;;;8.73;1.02;;;9.80;99.90;;;;;;4903747;29;20124;-36
2023/05/29 02:25:42;;;;;;;7.05;1.13;;;9.80;99.90;;;;;;4909656;29;20059;-36
2023/05/29 02:28:08;;;;;;;5.32;0.85;;;9.90;99.90;;;;;;4907175;29;20237;-37
2023/05/29 02:30:35;;;;;;;6.72;1.15;;;9.90;99.90;;;;;;4911560;29;20052;-36
2023/05/29 02:33:00;;;;;;;5.88;0.90;;;9.80;99.90;;;;;;4908948;29;20055;-37
2023/05/29 02:35:26;;;;;;;5.20;0.70;;;9.90;99.90;;;;;;4909990;29;20040;-37
2023/05/29 02:37:53;;;;;;;10.20;0.98;;;9.90;99.90;;;;;;4908726;29;20044;-36
2023/05/29 02:40:19;;;;;;;10.98;1.02;;;9.90;99.90;;;;;;4902529;29;20072;-37
2023/05/29 02:42:45;;;;;;;7.80;0.70;;;9.90;99.90;;;;;;4901400;29;20455;-37
2023/05/29 02:45:11;;;;;;;15.02;1.65;;;9.80;99.90;;;;;;4909982;29;20055;-37
2023/05/29 02:47:37;;;;;;;7.32;1.00;;;9.80;99.90;;;;;;4908218;29;20080;-37
2023/05/29 02:50:04;;;;;;;10.18;0.95;;;9.80;99.90;;;;;;4906270;29;20052;-36
2023/05/29 02:52:31;;;;;;;8.40;1.77;;;9.80;99.90;;;;;;4910957;29;20445;-37
2023/05/29 02:54:58;;;;;;;11.40;1.35;;;9.70;99.90;;;;;;4904928;29;20056;-36
2023/05/29 02:57:24;;;;;;;10.30;1.23;;;9.70;99.90;;;;;;4910533;29;20499;-37
2023/05/29 02:59:50;;;;;;;7.13;0.98;;;9.70;99.90;;;;;;4907990;29;20135;-36
2023/05/29 03:02:15;;;;;;;9.57;1.92;;;9.70;99.90;;;;;;4905578;29;20078;-37
2023/05/29 03:04:41;;;;;;;8.07;0.90;;;9.70;99.90;;;;;;4910828;29;20059;-36
2023/05/29 03:07:09;;;;;;;6.22;1.13;;;9.60;99.90;;;;;;4909704;29;20067;-36
2023/05/29 03:09:35;;;;;;;10.05;1.17;;;9.60;99.90;;;;;;4911107;29;20052;-37
2023/05/29 03:12:03;;;;;;;6.95;1.00;;;9.60;99.90;;;;;;4908809;29;22412;-37
2023/05/29 03:14:29;;;;;;;5.65;1.10;;;9.60;99.90;;;;;;4906201;29;20060;-37
2023/05/29 03:16:54;;;;;;;9.60;0.75;;;9.60;99.90;;;;;;4907733;29;20138;-37
2023/05/29 03:19:20;;;;;;;9.95;1.23;;;9.60;99.90;;;;;;4906543;29;20068;-37
2023/05/29 03:21:46;;;;;;;4.28;0.75;;;9.60;99.90;;;;;;4908268;29;20056;-37
2023/05/29 03:24:15;;;;;;;12.05;1.02;;;9.50;99.90;;;;;;4905173;29;20052;-37
2023/05/29 03:26:41;;;;;;;7.47;1.17;;;9.50;99.90;;;;;;4908561;29;20056;-37
2023/05/29 03:29:07;;;;;;;9.02;1.55;;;9.50;99.90;;;;;;4905243;29;20059;-37
2023/05/29 03:31:32;;;;;;;9.52;1.45;;;9.40;99.90;;;;;;4907508;29;20076;-37
2023/05/29 03:33:59;;;;;;;7.15;1.27;;;9.40;99.90;;;;;;4903434;29;20139;-37
2023/05/29 03:36:25;;;;;;;11.18;1.98;;;9.30;99.90;;;;;;4909861;29;20052;-37
2023/05/29 03:38:50;;;;;;;3.90;0.75;;;9.30;99.90;;;;;;4905388;29;20529;-37
2023/05/29 03:41:16;;;;;;;6.10;1.25;;;9.30;99.90;;;;;;4905528;29;20426;-37
2023/05/29 03:43:42;;;;;;;8.20;0.95;;;9.30;99.90;;;;;;4909162;29;20044;-37
2023/05/29 03:46:07;;;;;;;9.93;2.15;;;9.30;99.90;;;;;;4909195;29;20466;-37
2023/05/29 03:48:33;;;;;;;10.43;1.45;;;9.20;99.90;;;;;;4909272;29;20577;-36
2023/05/29 03:50:59;;;;;;;5.70;1.10;;;9.20;99.90;;;;;;4907818;29;20067;-36
2023/05/29 03:53:24;;;;;;;7.93;1.20;;;9.20;99.90;;;;;;4906265;29;20060;-37
2023/05/29 03:55:50;;;;;;;9.45;1.00;;;9.20;99.90;;;;;;4907310;29;20053;-37
2023/05/29 03:58:16;;;;;;;10.95;1.42;;;9.20;99.90;;;;;;4905712;29;20048;-36
2023/05/29 04:00:41;;;;;;;6.85;1.42;;;9.20;99.90;;;;;;4908845;29;20115;-36
2023/05/29 04:03:08;;;;;;;9.82;0.95;;;9.20;99.90;;;;;;4907339;29;20447;-36
2023/05/29 04:05:34;;;;;;;7.45;1.30;;;9.30;99.90;;;;;;4903031;29;20072;-37
2023/05/29 04:08:00;;;;;;;9.05;1.40;;;9.30;99.90;;;;;;4904868;29;20114;-36
2023/05/29 04:10:26;;;;;;;7.45;1.15;;;9.30;99.90;;;;;;4904430;29;20127;-37
2023/05/29 04:12:52;;;;;;;7.78;1.20;;;9.30;99.90;;;;;;4905753;29;20136;-36
2023/05/29 04:15:17;;;;;;;6.18;1.08;;;9.20;99.90;;;;;;4909074;29;20418;-37
2023/05/29 04:17:43;;;;;;;10.70;1.30;;;9.30;99.90;;;;;;4904255;29;20516;-37
2023/05/29 04:20:09;;;;;;;6.85;1.60;;;9.20;99.90;;;;;;4907707;29;20144;-36
2023/05/29 04:22:38;;;;;;;10.32;2.30;;;9.30;99.90;;;;;;4903031;29;20597;-36
2023/05/29 04:25:05;;;;;;;10.00;1.00;;;9.30;99.90;;;;;;4908844;29;20143;-36
2023/05/29 04:27:32;;;;;;;10.00;1.20;;;9.30;99.90;;;;;;4906308;29;20052;-37
2023/05/29 04:29:58;;;;;;;9.57;1.08;;;9.30;99.90;;;;;;4908368;29;20107;-36
2023/05/29 04:32:24;;;;;;;13.25;1.20;;;9.30;99.90;;;;;;4904051;29;20059;-37
2023/05/29 04:34:51;;;;;;;12.48;1.73;;;9.30;99.90;;;;;;4907118;29;20131;-35
2023/05/29 04:37:17;;;;;;;10.15;1.20;;;9.40;99.90;;;;;;4907812;29;20529;-37
2023/05/29 04:39:43;;;;;;;11.45;1.08;;;9.40;99.90;;;;;;4911246;29;20486;-36
2023/05/29 04:42:09;;;;;;;8.95;1.13;;;9.40;99.90;;;;;;4905789;29;20522;-37
2023/05/29 04:44:34;;;;;;;8.43;1.00;;;9.50;99.90;;;;;;4905708;29;20060;-36
2023/05/29 04:47:02;;;;;;;9.23;1.25;;;9.60;99.90;;;;;;4908546;29;20063;-36
2023/05/29 04:49:28;;;;;;;5.63;1.70;;;9.70;99.90;;;;;;4912187;29;20610;-36
2023/05/29 04:51:54;;;;;;;7.03;1.30;;;9.70;99.90;;;;;;4906505;29;20068;-36
2023/05/29 04:54:22;;;;;;;13.98;1.58;;;9.70;99.90;;;;;;4910492;29;20059;-37
2023/05/29 04:56:47;;;;;;;7.57;1.45;;;9.80;99.90;;;;;;4906134;29;20079;-37
2023/05/29 04:59:13;;;;;;;9.90;1.35;;;9.80;99.90;;;;;;4905849;29;20399;-37
2023/05/29 05:01:39;;;;;;;12.05;1.13;;;9.80;99.90;;;;;;4907238;29;20059;-37
2023/05/29 05:04:05;;;;;;;9.02;1.00;;;9.90;99.90;;;;;;4901724;29;20136;-36
2023/05/29 05:06:30;;;;;;;10.52;1.40;;;9.90;99.90;;;;;;4903492;29;20047;-36
2023/05/29 05:08:56;;;;;;;4.75;0.80;;;9.90;99.90;;;;;;4900392;29;20051;-36
2023/05/29 05:11:23;;;;;;;4.88;0.90;;;9.90;99.90;;;;;;4902193;29;20068;-37
2023/05/29 05:13:49;;;;;;;7.43;1.17;;;10.00;99.90;;;;;;4904231;29;20056;-36
2023/05/29 05:16:16;;;;;;;9.85;1.20;;;10.10;99.90;;;;;;4906783;29;20064;-36
2023/05/29 05:18:43;;;;;;;8.13;1.35;;;10.10;99.90;;;;;;4903520;29;20076;-37
2023/05/29 05:21:10;;;;;;;11.80;1.17;;;10.20;99.90;;;;;;4908014;29;20054;-36
2023/05/29 05:23:36;;;;;;;8.05;1.25;;;10.20;99.90;;;;;;4905685;29;20112;-36
2023/05/29 05:26:02;;;;;;;7.32;0.90;;;10.30;99.90;;;;;;4907591;29;20052;-35
2023/05/29 05:28:28;;;;;;;9.05;1.17;;;10.30;99.90;;;;;;4904828;29;20601;-36
2023/05/29 05:30:53;;;;;;;6.72;0.93;;;10.30;99.90;;;;;;4907031;29;20087;-36
2023/05/29 05:33:19;;;;;;;12.90;1.40;;;10.40;99.90;;;;;;4906980;29;20059;-36
2023/05/29 05:35:45;;;;;;;10.07;1.50;;;10.40;99.90;;;;;;4903267;29;20321;-37
2023/05/29 05:38:11;;;;;;;8.55;1.40;;;10.50;99.90;;;;;;4903874;29;20139;-35
2023/05/29 05:40:36;;;;;;;9.40;1.48;;;10.60;99.90;;;;;;4909432;29;20048;-36
2023/05/29 05:43:02;;;;;;;7.95;0.90;;;10.70;99.90;;;;;;4905224;29;20048;-35
2023/05/29 05:45:28;;;;;;;11.80;2.03;;;10.70;99.90;;;;;;4905147;29;20064;-37
2023/05/29 05:47:53;;;;;;;8.63;0.93;;;10.80;99.90;;;;;;4909477;29;20065;-37
2023/05/29 05:50:19;;;;;;;10.45;1.10;;;10.90;99.90;;;;;;4907230;29;20123;-36
2023/05/29 05:52:45;;;;;;;9.50;1.00;;;11.00;99.90;;;;;;4909115;29;20067;-36
2023/05/29 05:55:11;;;;;;;8.07;0.82;;;11.10;99.90;;;;;;4904489;29;20074;-36
2023/05/29 05:57:36;;;;;;;5.65;1.10;;;11.20;99.90;;;;;;4910165;29;20060;-36
2023/05/29 06:00:14;;;;;;;5.80;0.95;;;11.30;99.90;;;;;;4910230;29;20063;-35
2023/05/29 06:02:42;;;;;;;7.18;0.90;;;11.40;99.90;;;;;;4894538;29;20072;-36
2023/05/29 06:05:09;;;;;;;6.20;2.35;;;11.50;99.90;;;;;;4907520;29;20060;-35
2023/05/29 06:07:35;;;;;;;7.88;1.85;;;11.60;99.90;;;;;;4907637;29;20056;-36
2023/05/29 06:10:01;;;;;;;6.47;1.00;;;11.80;99.90;;;;;;4912040;29;20073;-34
2023/05/29 06:12:27;;;;;;;13.23;1.67;;;11.90;99.90;;;;;;4907633;29;20135;-36
2023/05/29 06:14:53;;;;;;;5.03;0.63;;;11.90;99.90;;;;;;4909139;29;20056;-36
2023/05/29 06:17:18;;;;;;;4.60;1.00;;;12.00;99.90;;;;;;4910421;29;20111;-36
2023/05/29 06:19:44;;;;;;;5.60;0.75;;;12.20;99.90;;;;;;4911878;29;20549;-37
2023/05/29 06:22:09;;;;;;;7.35;1.08;;;12.20;99.90;;;;;;4906884;29;20104;-37
2023/05/29 06:24:35;;;;;;;5.47;1.05;;;12.20;99.90;;;;;;4904284;29;20056;-37
2023/05/29 06:27:01;;;;;;;8.13;1.05;;;12.30;99.90;;;;;;4907119;29;20115;-36
2023/05/29 06:29:27;;;;;;;7.43;1.25;;;12.40;99.90;;;;;;4910219;29;20157;-37
2023/05/29 06:31:52;;;;;;;7.65;1.10;;;12.50;99.90;;;;;;4910817;29;20076;-36
2023/05/29 06:34:18;;;;;;;8.77;0.98;;;12.60;99.90;;;;;;4910306;29;20134;-36
2023/05/29 06:36:43;;;;;;;6.50;0.70;;;12.70;99.90;;;;;;4907614;29;20521;-37
2023/05/29 06:39:10;;;;;;;7.45;0.80;;;12.90;99.90;;;;;;4909702;29;20060;-37
2023/05/29 06:41:35;;;;;;;12.50;0.90;;;13.00;99.90;;;;;;4906451;29;20052;-37
2023/05/29 06:44:01;;;;;;;4.95;0.80;;;13.00;99.90;;;;;;4908165;29;20462;-37
2023/05/29 06:46:27;;;;;;;7.43;1.60;;;13.10;99.90;;;;;;4906539;29;20059;-36
2023/05/29 06:48:52;;;;;;;7.78;1.40;;;13.20;99.90;;;;;;4908775;29;20085;-37
2023/05/29 06:51:18;;;;;;;8.10;1.10;;;13.20;99.90;;;;;;4908880;29;20051;-37
2023/05/29 06:53:44;;;;;;;7.20;1.40;;;13.30;99.90;;;;;;4907659;29;20127;-37
2023/05/29 06:56:10;;;;;;;3.25;0.85;;;13.20;99.90;;;;;;4910117;29;20059;-36
2023/05/29 06:58:35;;;;;;;9.45;1.17;;;13.20;99.90;;;;;;4900948;29;20063;-36
2023/05/29 07:01:01;;;;;;;8.15;0.90;;;13.10;99.90;;;;;;4905658;29;20154;-36
2023/05/29 07:03:27;;;;;;;13.43;1.25;;;13.10;99.90;;;;;;4910203;29;20060;-37
2023/05/29 07:05:53;;;;;;;5.75;1.35;;;13.00;99.90;;;;;;4909869;29;20059;-36
2023/05/29 07:08:19;;;;;;;9.57;1.70;;;13.00;99.90;;;;;;4906327;29;20060;-36
2023/05/29 07:10:45;;;;;;;11.75;1.30;;;13.10;99.90;;;;;;4910091;29;20106;-36
2023/05/29 07:13:15;;;;;;;4.43;0.75;;;13.30;99.90;;;;;;4906211;29;20494;-35
2023/05/29 07:15:41;;;;;;;8.05;1.73;;;13.30;99.90;;;;;;4910015;29;20387;-36
2023/05/29 07:18:06;;;;;;;8.77;1.50;;;13.50;99.90;;;;;;4911790;29;20134;-36
2023/05/29 07:20:32;;;;;;;6.22;1.02;;;13.60;99.90;;;;;;4907835;29;20048;-36
2023/05/29 07:22:58;;;;;;;11.45;1.45;;;13.80;99.90;;;;;;4907429;29;20130;-36
2023/05/29 07:25:23;;;;;;;7.80;1.15;;;13.90;99.90;;;;;;4905955;29;20056;-36
2023/05/29 07:27:49;;;;;;;7.75;1.65;;;14.10;99.90;;;;;;4905981;29;20535;-36
2023/05/29 07:30:15;;;;;;;13.65;1.38;;;14.20;99.90;;;;;;4903338;29;20506;-36
2023/05/29 07:32:40;;;;;;;8.45;1.55;;;14.30;99.90;;;;;;4903493;29;20040;-36
2023/05/29 07:35:06;;;;;;;8.73;1.40;;;14.30;99.90;;;;;;4908235;29;20421;-36
2023/05/29 07:37:32;;;;;;;10.43;1.20;;;14.40;99.90;;;;;;4906731;29;20054;-36
2023/05/29 07:39:58;;;;;;;10.80;1.30;;;14.40;99.90;;;;;;4885741;29;20062;-36
2023/05/29 07:42:23;;;;;;;6.43;0.98;;;14.40;99.90;;;;;;4891372;29;20060;-36
2023/05/29 07:44:49;;;;;;;8.73;1.33;;;14.50;99.90;;;;;;4907893;29;20048;-36
2023/05/29 07:47:15;;;;;;;6.68;0.77;;;14.60;99.90;;;;;;4905255;29;20047;-36
2023/05/29 07:49:40;;;;;;;8.63;1.05;;;14.60;99.90;;;;;;4905521;29;20118;-36
2023/05/29 07:52:06;;;;;;;6.35;1.27;;;14.60;99.90;;;;;;4901401;29;20067;-36
2023/05/29 07:54:32;;;;;;;6.95;1.10;;;14.70;99.90;;;;;;4901155;29;20083;-36
2023/05/29 07:56:59;;;;;;;10.27;2.95;;;14.70;99.90;;;;;;4904627;29;20392;-36
2023/05/29 07:59:25;;;;;;;7.50;1.10;;;14.70;99.90;;;;;;4901537;29;20048;-36
2023/05/29 08:01:51;;;;;;;8.98;1.55;;;14.70;99.90;;;;;;4901661;29;20056;-36
2023/05/29 08:04:17;;;;;;;7.85;1.60;;;14.80;99.90;;;;;;4908425;29;20073;-35
2023/05/29 08:06:43;;;;;;;9.82;1.52;;;14.80;99.90;;;;;;4902373;29;20047;-36
2023/05/29 08:09:10;;;;;;;8.80;1.25;;;14.80;99.90;;;;;;4903165;29;20044;-36
2023/05/29 08:11:36;;;;;;;7.22;1.17;;;14.90;99.90;;;;;;4898949;29;20496;-37
2023/05/29 08:14:02;;;;;;;8.38;1.55;;;15.00;99.90;;;;;;4906038;29;20052;-37
2023/05/29 08:16:28;;;;;;;8.07;1.30;;;15.20;99.90;;;;;;4900612;29;20108;-37
2023/05/29 08:18:54;;;;;;;7.68;1.48;;;15.30;99.90;;;;;;4901739;29;20483;-36
2023/05/29 08:21:20;;;;;;;11.02;2.17;;;15.40;99.90;;;;;;4899088;29;20354;-35
2023/05/29 08:23:45;;;;;;;8.35;1.52;;;15.50;99.90;;;;;;4903346;29;20060;-36
2023/05/29 08:26:12;;;;;;;6.60;2.00;;;15.40;99.90;;;;;;4899278;29;20062;-36
2023/05/29 08:28:37;;;;;;;10.50;1.50;;;15.40;99.90;;;;;;4897919;29;20151;-36
2023/05/29 08:31:03;;;;;;;4.90;1.35;;;15.40;99.90;;;;;;4902819;29;20068;-37
2023/05/29 08:33:30;;;;;;;7.18;1.33;;;15.60;99.90;;;;;;4910599;29;20446;-36
2023/05/29 08:35:58;;;;;;;7.45;1.73;;;15.70;99.90;;;;;;4910249;29;20118;-37
2023/05/29 08:38:25;;;;;;;8.60;1.60;;;15.80;99.90;;;;;;4899708;29;20114;-36
2023/05/29 08:40:51;;;;;;;9.05;1.38;;;15.80;99.90;;;;;;4906726;29;20059;-37
2023/05/29 08:43:21;;;;;;;10.10;1.40;;;15.90;99.90;;;;;;4906116;29;20048;-36
2023/05/29 08:45:52;;;;;;;9.57;1.55;;;16.00;99.90;;;;;;4897542;29;20056;-36
2023/05/29 08:48:22;;;;;;;7.93;1.40;;;16.00;99.90;;;;;;4894202;29;20052;-36
2023/05/29 08:50:48;;;;;;;10.05;1.55;;;16.00;99.90;;;;;;4906390;29;20060;-36
2023/05/29 08:53:18;;;;;;;9.55;1.42;;;16.20;99.90;;;;;;4910530;29;20052;-37
2023/05/29 08:55:46;;;;;;;6.85;1.38;;;16.30;99.90;;;;;;4907574;29;20068;-37
2023/05/29 08:58:13;;;;;;;6.25;1.13;;;16.40;99.90;;;;;;4902378;29;20056;-36
2023/05/29 09:00:40;;;;;;;9.23;1.77;;;16.40;99.90;;;;;;4897499;29;20259;-36
2023/05/29 09:03:07;;;;;;;10.35;1.50;;;16.40;99.90;;;;;;4899852;29;20049;-37
2023/05/29 09:05:33;;;;;;;12.50;2.03;;;16.30;99.90;;;;;;4889593;29;20056;-37
2023/05/29 09:07:59;;;;;;;10.27;1.60;;;16.30;99.90;;;;;;4905041;29;20115;-36
2023/05/29 09:10:26;;;;;;;5.80;1.20;;;16.40;99.90;;;;;;4902545;29;20044;-35
2023/05/29 09:12:52;;;;;;;13.88;1.65;;;16.30;99.90;;;;;;4909590;29;20482;-36
2023/05/29 09:15:19;;;;;;;7.15;1.70;;;16.40;99.90;;;;;;4906129;29;20052;-37
2023/05/29 09:17:50;;;;;;;10.65;2.22;;;16.50;99.90;;;;;;4897944;29;20114;-37
2023/05/29 09:20:22;;;;;;;7.82;1.23;;;16.60;99.90;;;;;;4897232;29;20056;-36
2023/05/29 09:23:00;;;;;;;10.30;1.85;;;16.70;99.90;;;;;;4896228;29;20060;-36
2023/05/29 09:25:28;;;;;;;9.55;1.42;;;16.80;99.90;;;;;;4907769;29;20056;-36
2023/05/29 09:28:02;;;;;;;13.57;1.80;;;16.80;99.90;;;;;;4897103;29;20135;-36
2023/05/29 09:30:36;;;;;;;8.40;1.45;;;16.80;99.90;;;;;;4902529;29;20138;-36
2023/05/29 09:33:03;;;;;;;8.63;1.50;;;16.90;99.90;;;;;;4899747;29;20064;-36
2023/05/29 09:35:35;;;;;;;10.65;1.67;;;17.00;99.90;;;;;;4903544;29;20048;-37
2023/05/29 09:38:01;;;;;;;9.48;1.75;;;17.10;99.90;;;;;;4882994;29;20071;-36
2023/05/29 09:40:32;;;;;;;7.35;1.90;;;17.10;99.90;;;;;;4897765;29;20072;-36
2023/05/29 09:43:10;;;;;;;11.60;1.85;;;17.10;99.90;;;;;;4895606;29;20557;-37
2023/05/29 09:45:49;;;;;;;8.10;1.48;;;17.30;99.90;;;;;;4895707;29;20078;-37
2023/05/29 09:48:22;;;;;;;9.98;1.90;;;17.40;99.90;;;;;;4903514;29;20052;-36
2023/05/29 09:50:48;;;;;;;11.30;1.30;;;17.40;99.90;;;;;;4902990;29;20060;-36
2023/05/29 09:53:19;;;;;;;8.38;1.45;;;17.40;99.90;;;;;;4906064;29;20067;-36
2023/05/29 09:55:50;;;;;;;8.45;1.40;;;17.60;99.90;;;;;;4898956;29;20056;-36
2023/05/29 09:58:17;;;;;;;6.78;1.20;;;17.80;99.90;;;;;;4898781;29;20056;-36
2023/05/29 10:00:43;;;;;;;8.43;1.25;;;18.00;99.90;;;;;;4901851;29;20044;-37
2023/05/29 10:03:12;;;;;;;7.32;1.40;;;18.00;99.90;;;;;;4903438;29;20055;-37
2023/05/29 10:05:39;;;;;;;9.75;1.30;;;18.10;99.90;;;;;;4898324;29;20517;-37
2023/05/29 10:08:08;;;;;;;8.25;1.90;;;18.20;99.90;;;;;;4903270;29;20055;-36
2023/05/29 10:10:38;;;;;;;6.57;1.52;;;18.10;99.90;;;;;;4902466;29;20055;-37
2023/05/29 10:13:06;;;;;;;9.00;1.70;;;18.00;99.90;;;;;;4900351;29;20056;-37
2023/05/29 10:15:32;;;;;;;7.20;1.33;;;18.00;99.90;;;;;;4897297;29;20594;-36
2023/05/29 10:18:04;;;;;;;15.75;2.33;;;18.00;99.90;;;;;;4904745;29;20066;-36
2023/05/29 10:20:33;;;;;;;5.55;1.20;;;18.10;99.90;;;;;;4899212;29;20055;-36
2023/05/29 10:23:01;;;;;;;10.35;1.55;;;18.20;99.90;;;;;;4899091;29;20103;-36
2023/05/29 10:25:30;;;;;;;10.88;1.80;;;18.40;99.90;;;;;;4902113;29;20111;-36
2023/05/29 10:27:56;;;;;;;7.30;1.35;;;18.50;99.90;;;;;;4902990;29;20056;-36
2023/05/29 10:30:40;;;;;;;9.98;1.77;;;18.60;99.90;;;;;;4903661;29;20052;-37
2023/05/29 10:33:27;;;;;;;7.57;1.27;;;18.60;99.90;;;;;;4899572;29;20056;-36
2023/05/29 10:36:10;;;;;;;5.80;1.27;;;18.50;99.90;;;;;;4903826;29;20510;-37
2023/05/29 10:38:35;;;;;;;;;;;18.40;99.90;;;;;;4902683;29;20138;-36
2023/05/29 10:41:26;;;;;;;9.95;1.33;;;18.40;99.90;;;;;;4907123;29;20294;-36
2023/05/29 10:43:54;;;;;;;8.13;1.23;;;18.50;99.90;;;;;;4901091;29;20218;-37
2023/05/29 10:46:19;;;;;;;8.65;1.27;;;18.70;99.90;;;;;;4901905;29;20060;-36
2023/05/29 10:48:49;;;;;;;9.90;1.38;;;18.90;99.90;;;;;;4905498;29;20242;-36
2023/05/29 10:51:39;;;;;;;12.20;2.17;;;19.00;99.90;;;;;;4906050;29;20123;-36
2023/05/29 10:54:06;;;;;;;11.05;1.50;;;19.10;99.90;;;;;;4898430;29;20067;-36
2023/05/29 10:56:32;;;;;;;10.77;1.85;;;19.10;99.90;;;;;;4886203;29;20189;-36
2023/05/29 10:59:00;;;;;;;8.77;0.95;;;19.20;99.90;;;;;;4900493;29;20056;-35
2023/05/29 11:01:28;;;;;;;7.38;2.00;;;19.20;99.90;;;;;;4905678;29;20047;-36
2023/05/29 11:04:21;;;;;;;12.68;1.70;;;19.30;99.90;;;;;;4899975;29;20133;-36
2023/05/29 11:06:47;;;;;;;8.52;1.90;;;19.40;99.90;;;;;;4899271;29;20677;-35
2023/05/29 11:09:39;;;;;;;6.25;1.30;;;19.40;99.90;;;;;;4893125;29;20052;-35
2023/05/29 11:12:25;;;;;;;9.85;1.42;;;19.40;99.90;;;;;;4899305;29;20459;-35
2023/05/29 11:15:08;;;;;;;9.48;1.45;;;19.40;99.90;;;;;;4894667;29;20079;-35
2023/05/29 11:17:39;;;;;;;14.40;1.52;;;19.20;99.90;;;;;;4910401;29;20044;-36
2023/05/29 11:20:16;;;;;;;6.87;1.20;;;19.10;99.90;;;;;;4916418;29;20064;-35
2023/05/29 11:22:56;;;;;;;9.57;1.80;;;19.10;99.90;;;;;;4912375;29;20060;-36
2023/05/29 11:25:22;;;;;;;7.45;1.40;;;19.10;99.90;;;;;;4902614;29;20094;-36
2023/05/29 11:27:49;;;;;;;9.85;1.55;;;19.20;99.90;;;;;;4903284;29;20087;-36
2023/05/29 11:30:14;;;;;;;4.20;1.27;;;19.30;99.90;;;;;;4903795;29;20066;-36
2023/05/29 11:32:42;;;;;;;9.43;1.65;;;19.40;99.90;;;;;;4902381;29;20056;-36
2023/05/29 11:35:09;;;;;;;7.50;1.05;;;19.50;99.90;;;;;;4904549;29;20051;-36
2023/05/29 11:37:39;;;;;;;9.02;1.30;;;19.50;99.90;;;;;;4902168;29;20048;-36
2023/05/29 11:40:08;;;;;;;9.73;1.50;;;19.60;99.90;;;;;;4898511;29;21008;-36
2023/05/29 11:42:34;;;;;;;14.02;2.10;;;19.80;99.90;;;;;;4897402;29;20423;-36
2023/05/29 11:45:20;;;;;;;5.75;1.20;;;19.90;99.90;;;;;;4903922;29;20115;-36
2023/05/29 11:47:59;;;;;;;8.05;1.50;;;19.80;99.90;;;;;;4908038;29;20052;-36
2023/05/29 11:50:30;;;;;;;7.65;1.38;;;19.90;99.90;;;;;;4900082;29;20074;-36
2023/05/29 11:52:57;;;;;;;9.63;1.20;;;19.90;99.90;;;;;;4916584;29;20624;-36
2023/05/29 11:55:24;;;;;;;11.45;1.63;;;20.00;99.90;;;;;;4896462;29;20143;-36
2023/05/29 11:57:51;;;;;;;10.95;1.73;;;20.10;99.90;;;;;;4909481;29;20056;-36
2023/05/29 12:00:19;;;;;;;10.73;1.27;;;20.20;99.90;;;;;;4907277;29;20514;-35
2023/05/29 12:02:46;;;;;;;7.25;1.50;;;20.30;99.90;;;;;;4902865;29;20060;-35
2023/05/29 12:05:15;;;;;;;8.48;1.65;;;20.20;99.90;;;;;;4907932;29;20052;-36
2023/05/29 12:07:51;;;;;;;9.20;1.33;;;20.10;99.90;;;;;;4897898;29;20111;-35
2023/05/29 12:10:18;;;;;;;10.75;1.58;;;20.00;99.90;;;;;;4906967;29;20475;-35
2023/05/29 12:12:52;;;;;;;8.45;1.25;;;20.10;99.90;;;;;;4898800;29;20060;-35
2023/05/29 12:15:18;;;;;;;10.80;1.65;;;20.20;99.90;;;;;;4900367;29;20059;-35
2023/05/29 12:17:45;;;;;;;9.45;1.83;;;20.20;99.90;;;;;;4907188;29;20506;-35
2023/05/29 12:20:13;;;;;;;7.18;1.77;;;20.20;99.90;;;;;;4911894;29;20167;-35
2023/05/29 12:22:40;;;;;;;6.75;1.48;;;20.00;99.90;;;;;;4910849;29;20507;-35
2023/05/29 12:25:07;;;;;;;7.45;1.60;;;20.00;99.90;;;;;;4900574;29;20342;-35
2023/05/29 12:27:37;;;;;;;7.38;1.50;;;20.10;99.90;;;;;;4907020;29;20055;-35
2023/05/29 12:30:05;;;;;;;4.88;1.23;;;20.10;99.90;;;;;;4906711;29;20143;-35
2023/05/29 12:32:45;;;;;;;5.93;1.05;;;20.10;99.90;;;;;;4899365;29;20398;-35
2023/05/29 12:35:16;;;;;;;7.32;1.30;;;20.20;99.90;;;;;;4905858;29;20725;-35
2023/05/29 12:37:46;;;;;;;6.75;1.10;;;20.40;99.90;;;;;;4903922;29;20048;-35
2023/05/29 12:40:20;;;;;;;8.35;1.40;;;20.40;99.90;;;;;;4912015;29;20063;-35
2023/05/29 12:42:56;;;;;;;9.27;1.42;;;20.60;99.90;;;;;;4901750;29;20052;-35
2023/05/29 12:45:27;;;;;;;3.85;1.13;;;20.70;99.90;;;;;;4901595;29;20514;-35
2023/05/29 12:47:53;;;;;;;10.75;1.45;;;20.90;99.90;;;;;;4903900;29;20052;-35
2023/05/29 12:50:22;;;;;;;8.57;1.45;;;21.00;99.90;;;;;;4901502;29;20513;-35
2023/05/29 12:53:09;;;;;;;8.18;1.38;;;21.10;99.90;;;;;;4913108;29;20106;-35